AirNav   Air Wisconsin pilot careers
 
 734 users online  

M54 Lebanon Municipal Airport
Lebanon, Tennessee, USA

GOING TO LEBANON?


FAA INFORMATION EFFECTIVE 06 DECEMBER 2018

Location

FAA Identifier: M54
Lat/Long: 36-11-25.4804N / 086-18-56.4855W
36-11.424673N / 086-18.941425W
36.1904112 / -86.3156904
(estimated)
Elevation: 588.4 ft. / 179.3 m (surveyed)
Variation: 02W (1995)
From city: 2 miles SW of LEBANON, TN
Time zone: UTC -6 (UTC -5 during Daylight Saving Time)
Zip code: 37090

Airport Operations

Airport use: Open to the public
Activation date: 10/1939
Control tower: no
ARTCC: MEMPHIS CENTER
FSS: NASHVILLE FLIGHT SERVICE STATION
NOTAMs facility: BNA (NOTAM-D service available)
Attendance: 0700-1900
CLSD EASTER, THANKSGIVING, CHRISTMAS AND NEW YEARS DAY.
FOR SERVICE AFT HRS CALL 615-444-0031.
Wind indicator: lighted
Segmented circle: yes
Beacon: white-green (lighted land airport)
Operates sunset to sunrise.

Airport Communications

CTAF/UNICOM: 122.725
WX AWOS-3: 118.325 (615-444-5778)
NASHVILLE APPROACH: 118.4
NASHVILLE DEPARTURE: 118.4
WX AWOS-3 at XNX (12 nm N): 132.725 (615-230-8005)
WX AWOS-3PT at MQY (15 nm SW): 119.125 (615-223-7716)
WX ASOS at BNA (18 nm W): PHONE 615-360-6133
WX AWOS-3 at MBT (19 nm S): 133.975 (615-849-2622)

Nearby radio navigation aids

VOR radial/distance  VOR name  Freq  Var
BNAr082/18.2NASHVILLE VORTAC114.1002W
SYIr010/38.2SHELBYVILLE VOR/DME109.0001W

 
NDB name  Hdg/Dist  Freq  Var  ID
WALTER HILL013/14.037102WFQW ..-. --.- .--
HUCHN292/37.423303WHEM .... . --

Airport Services

Fuel available: 100LL JET-A
Parking: hangars and tiedowns
Airframe service: MINOR
Powerplant service: MINOR
Bottled oxygen: NONE
Bulk oxygen: NONE

Runway Information

Runway 1/19

Dimensions: 5000 x 100 ft. / 1524 x 30 m
Surface: asphalt, in good condition
Weight bearing capacity: 
Single wheel: 24.0
Double wheel: 37.0
Runway edge lights: medium intensity
RUNWAY 1  RUNWAY 19
Latitude: 36-11.019090N36-11.837583N
Longitude: 086-19.044848W086-18.928898W
Elevation: 588.0 ft.549.7 ft.
Gradient: 0.7%0.7%
Traffic pattern: leftleft
Runway heading: 009 magnetic, 007 true189 magnetic, 187 true
Displaced threshold: 400 ft.500 ft.
Declared distances: TORA:5000 TODA:5000 ASDA:4680 LDA:4527TORA:5000 TODA:5000 ASDA:4847 LDA:4527
Markings: nonprecision, in good conditionnonprecision, in good condition
Visual slope indicator: 2-light PAPI on left (3.00 degrees glide path)
RY 1 PAPI OTS INDEFLY.
2-light PAPI on left (3.00 degrees glide path)
Runway end identifier lights: yesyes
Touchdown point: yes, no lightsyes, no lights
Obstructions: 103 ft. trees, 2022 ft. from runway, 475 ft. left of centerline, 18:1 slope to clearnone

Runway 4/22

Dimensions: 1801 x 150 ft. / 549 x 46 m
Surface: turf, in good condition
Runway edge markings: 04/22 MKD WITH 3 FT WHITE CONES; DSPLCD THLDS MKD WITH3 WHITE CONES.
RUNWAY 4  RUNWAY 22
Latitude: 36-11.312000N36-11.517000N
Longitude: 086-18.947667W086-18.682833W
Elevation: 568.0 ft.565.0 ft.
Gradient: 0.3%0.3%
Traffic pattern: leftleft
Runway heading: 048 magnetic, 046 true228 magnetic, 226 true
Markings: basic, in good conditionbasic, in good condition
Obstructions: 113 ft. sign, 2500 ft. from runway, 297 ft. right of centerline, 22:1 slope to clear54 ft. trees, 422 ft. from runway, 184 ft. right of centerline, 7:1 slope to clear

Airport Ownership and Management from official FAA records

Ownership: Publicly-owned
Owner: CITY OF LEBANON
200 CASTLE HEIGHTS AVE NORTH
LEBANON, TN 37087
Phone 615-443-2839
Manager: HEATHER BAY
200 AVIATION WAY
LEBANON, TN 37090
Phone 615-444-0031

Airport Operational Statistics

Aircraft based on the field: 118
Single engine airplanes: 105
Multi engine airplanes: 5
Jet airplanes: 2
Helicopters: 2
Ultralights: 4
    
Aircraft operations: avg 44/day *
61% local general aviation
27% transient general aviation
10% air taxi
3% military
* for 12-month period ending 30 May 2016

Additional Remarks

WILDLIFE ACTIVITY ON & INVOF ARPT.
FOR CD CTC BNA APCH AT 615-695-4522.

Instrument Procedures

NOTE: All procedures below are presented as PDF files. If you need a reader for these files, you should download the free Adobe Reader.

NOT FOR NAVIGATION. Please procure official charts for flight.
FAA instrument procedures published for use from 6 December 2018 at 0901Z to 3 January 2019 at 0900Z.

 
IAPs - Instrument Approach Procedures
RNAV (GPS) RWY 01   download (278KB)
RNAV (GPS) RWY 19   download (326KB)
VOR/DME-A   download (243KB)
NOTE: Special Take-Off Minimums/Departure Procedures apply   download (126KB)

Other nearby airports with instrument procedures:

KXNX - Sumner County Regional Airport (12 nm N)
KMQY - Smyrna Airport (15 nm SW)
KBNA - Nashville International Airport (18 nm W)
KMBT - Murfreesboro Municipal Airport (19 nm S)
3M7 - Lafayette Municipal Airport (23 nm NE)
 
Loc | Ops | Rwys | IFR | FBO | Links
Com | Nav | Svcs | Stats | Notes


 
Area around M54 (Lebanon Municipal Airport)
 
Road maps at: MapQuest Bing Google
 
Aerial photo
WARNING: Photo may not be current or correct
Aerial photo of M54 (Lebanon Municipal Airport)
Photo by Thomas Cheney
Photo taken 16-Jun-2013
looking southwest.

Do you have a better or more recent aerial photo of Lebanon Municipal Airport that you would like to share? If so, please send us your photo.

 
Sectional chart

 
Airport distance calculator
Flying to Lebanon Municipal Airport? Find the distance to fly.

From to M54

Sunrise and sunset
Times for 16-Dec-2018
 Local
(UTC-6)
 Zulu
(UTC)
Morning civil twilight06:2212:22
Sunrise06:5112:51
Sunset16:3122:31
Evening civil twilight17:0023:00

Current date and time
Zulu (UTC)  16-Dec-2018 14:10:58
Local (UTC-6)  16-Dec-2018 08:10:58
 
METAR
KM54 161355Z AUTO 32004KT 9SM OVC011 06/05 A3014 RMK A01
KXNX 
12nm N 
161355Z AUTO VRB05G10KT 10SM OVC010 07/05 A3018 RMK A01
KMQY 
14nm SW 
161356Z 31007KT 10SM BKN014 OVC020 07/06 A3018 RMK AO2 SLP193 T00720056
KBNA 
18nm W 
161353Z 32004KT 10SM BKN017 OVC025 08/04 A3017 RMK AO2 SLP215 T00830044
KMBT 
19nm S 
161355Z AUTO 33004KT 10SM OVC012 07/06 A3015 RMK A01
TAF
KMQY 
14nm SW 
161120Z 1612/1712 31012KT P6SM OVC012 FM161500 32008KT P6SM OVC025 FM161900 31008KT P6SM SCT040 BKN100 FM170000 31002KT P6SM SKC
KBNA 
18nm W 
161120Z 1612/1712 30010KT P6SM OVC015 FM161500 29008KT P6SM OVC025 FM161800 30008KT P6SM SCT040 BKN100 FM170000 29003KT P6SM SKC
NOTAMs
Click for the latest NOTAMs
NOTAMs are issued by the DoD/FAA and will open in a separate window not controlled by AirNav.

 

 
 

FBO, Fuel Providers, and Aircraft Ground Support

  
 Business Name 
 
 Contact 
 
 Services / Description 
 
Fuel Prices
 
Comments
  
 Direct Flight Solutions
615-444-0031
615-443-2117
[web site]
[email]
Airport management, Aviation fuel, Aircraft ground handling, Oxygen service, Aircraft parking (ramp or tiedown), Hangars, Hangar leasing / sales, ...
 
Avfuel Contract Fuel  
 
More info about Direct Flight Solutions
Shell
100LL Jet A
FS $5.04 $5.15 
 Updated 04-Dec-2018
 
   7 read write
FS=Full service
Update Fuel Prices
 

Would you like to see your business listed on this page?

 If your business provides an interesting product or service to pilots, flight crews, aircraft, or users of the Lebanon Municipal Airport, you should consider listing it here.  To start the listing process, click on the button below
 
Add a business
 

Other Pages about Lebanon Municipal Airport

www.ci.lebanon.tn.us/airport.htm
 
Update a link
 
Copyright © AirNav, LLC. All rights reserved. Privacy Policy  Contact